sensor_id;sensor_type;location;lat;lon;timestamp;P1;durP1;ratioP1;P2;durP2;ratioP2
60030;SDS011;45901;47.600;9.890;2023-09-12T00:01:27;11.20;;;7.53;;
60030;SDS011;45901;47.600;9.890;2023-09-12T00:03:57;9.07;;;7.03;;
60030;SDS011;45901;47.600;9.890;2023-09-12T00:06:24;10.00;;;7.20;;
60030;SDS011;45901;47.600;9.890;2023-09-12T00:08:51;13.33;;;7.23;;
60030;SDS011;45901;47.600;9.890;2023-09-12T00:11:18;9.93;;;6.60;;
60030;SDS011;45901;47.600;9.890;2023-09-12T00:13:45;10.10;;;6.97;;
60030;SDS011;45901;47.600;9.890;2023-09-12T00:16:12;10.83;;;7.37;;
60030;SDS011;45901;47.600;9.890;2023-09-12T00:18:41;8.43;;;6.87;;
60030;SDS011;45901;47.600;9.890;2023-09-12T00:21:08;9.90;;;6.43;;
60030;SDS011;45901;47.600;9.890;2023-09-12T00:23:35;9.30;;;6.77;;
60030;SDS011;45901;47.600;9.890;2023-09-12T00:26:02;8.57;;;7.27;;
60030;SDS011;45901;47.600;9.890;2023-09-12T00:28:29;9.17;;;6.80;;
60030;SDS011;45901;47.600;9.890;2023-09-12T00:30:56;8.80;;;7.00;;
60030;SDS011;45901;47.600;9.890;2023-09-12T00:33:23;9.10;;;6.73;;
60030;SDS011;45901;47.600;9.890;2023-09-12T00:35:51;10.67;;;6.93;;
60030;SDS011;45901;47.600;9.890;2023-09-12T00:38:19;9.27;;;6.97;;
60030;SDS011;45901;47.600;9.890;2023-09-12T00:40:46;11.17;;;6.87;;
60030;SDS011;45901;47.600;9.890;2023-09-12T00:43:13;10.03;;;6.40;;
60030;SDS011;45901;47.600;9.890;2023-09-12T00:45:41;9.07;;;7.07;;
60030;SDS011;45901;47.600;9.890;2023-09-12T00:48:09;8.50;;;6.80;;
60030;SDS011;45901;47.600;9.890;2023-09-12T00:50:37;7.17;;;6.37;;
60030;SDS011;45901;47.600;9.890;2023-09-12T00:53:06;9.83;;;6.73;;
60030;SDS011;45901;47.600;9.890;2023-09-12T00:55:34;7.77;;;6.40;;
60030;SDS011;45901;47.600;9.890;2023-09-12T00:58:07;8.20;;;6.37;;
60030;SDS011;45901;47.600;9.890;2023-09-12T01:00:34;12.10;;;6.97;;
60030;SDS011;45901;47.600;9.890;2023-09-12T01:03:01;12.27;;;6.27;;
60030;SDS011;45901;47.600;9.890;2023-09-12T01:05:29;8.93;;;6.37;;
60030;SDS011;45901;47.600;9.890;2023-09-12T01:07:56;7.10;;;6.40;;
60030;SDS011;45901;47.600;9.890;2023-09-12T01:10:24;9.00;;;6.93;;
60030;SDS011;45901;47.600;9.890;2023-09-12T01:12:51;8.60;;;6.70;;
60030;SDS011;45901;47.600;9.890;2023-09-12T01:15:19;9.47;;;6.30;;
60030;SDS011;45901;47.600;9.890;2023-09-12T01:17:46;9.00;;;6.40;;
60030;SDS011;45901;47.600;9.890;2023-09-12T01:20:14;10.57;;;6.63;;
60030;SDS011;45901;47.600;9.890;2023-09-12T01:22:51;9.43;;;6.50;;
60030;SDS011;45901;47.600;9.890;2023-09-12T01:28:53;10.03;;;6.70;;
60030;SDS011;45901;47.600;9.890;2023-09-12T01:31:22;7.93;;;6.50;;
60030;SDS011;45901;47.600;9.890;2023-09-12T01:33:54;9.23;;;6.63;;
60030;SDS011;45901;47.600;9.890;2023-09-12T01:36:22;8.23;;;6.60;;
60030;SDS011;45901;47.600;9.890;2023-09-12T01:38:49;7.37;;;6.57;;
60030;SDS011;45901;47.600;9.890;2023-09-12T01:41:16;7.97;;;6.63;;
60030;SDS011;45901;47.600;9.890;2023-09-12T01:43:44;8.27;;;6.70;;
60030;SDS011;45901;47.600;9.890;2023-09-12T01:46:14;9.93;;;6.33;;
60030;SDS011;45901;47.600;9.890;2023-09-12T01:48:43;11.70;;;6.40;;
60030;SDS011;45901;47.600;9.890;2023-09-12T01:51:11;7.93;;;6.63;;
60030;SDS011;45901;47.600;9.890;2023-09-12T01:53:39;8.20;;;6.70;;
60030;SDS011;45901;47.600;9.890;2023-09-12T01:56:07;10.40;;;6.67;;
60030;SDS011;45901;47.600;9.890;2023-09-12T01:58:35;12.93;;;6.87;;
60030;SDS011;45901;47.600;9.890;2023-09-12T02:01:02;7.57;;;5.83;;
60030;SDS011;45901;47.600;9.890;2023-09-12T02:03:30;10.10;;;6.93;;
60030;SDS011;45901;47.600;9.890;2023-09-12T02:05:57;6.57;;;5.60;;
60030;SDS011;45901;47.600;9.890;2023-09-12T02:08:24;9.20;;;6.27;;
60030;SDS011;45901;47.600;9.890;2023-09-12T02:10:51;11.77;;;6.90;;
60030;SDS011;45901;47.600;9.890;2023-09-12T02:13:18;8.20;;;6.57;;
60030;SDS011;45901;47.600;9.890;2023-09-12T02:15:45;7.53;;;5.67;;
60030;SDS011;45901;47.600;9.890;2023-09-12T02:18:12;8.03;;;6.10;;
60030;SDS011;45901;47.600;9.890;2023-09-12T02:20:41;8.40;;;6.07;;
60030;SDS011;45901;47.600;9.890;2023-09-12T02:23:10;8.17;;;6.60;;
60030;SDS011;45901;47.600;9.890;2023-09-12T02:25:37;8.47;;;6.90;;
60030;SDS011;45901;47.600;9.890;2023-09-12T02:28:05;9.20;;;6.47;;
60030;SDS011;45901;47.600;9.890;2023-09-12T02:30:32;10.20;;;6.40;;
60030;SDS011;45901;47.600;9.890;2023-09-12T02:32:59;8.10;;;6.27;;
60030;SDS011;45901;47.600;9.890;2023-09-12T02:35:27;7.77;;;6.53;;
60030;SDS011;45901;47.600;9.890;2023-09-12T02:37:55;10.33;;;6.70;;
60030;SDS011;45901;47.600;9.890;2023-09-12T02:40:23;10.87;;;6.70;;
60030;SDS011;45901;47.600;9.890;2023-09-12T02:42:50;8.43;;;6.47;;
60030;SDS011;45901;47.600;9.890;2023-09-12T02:45:18;7.87;;;6.60;;
60030;SDS011;45901;47.600;9.890;2023-09-12T02:47:45;9.53;;;6.57;;
60030;SDS011;45901;47.600;9.890;2023-09-12T02:50:12;8.47;;;6.03;;
60030;SDS011;45901;47.600;9.890;2023-09-12T02:52:39;8.07;;;6.43;;
60030;SDS011;45901;47.600;9.890;2023-09-12T02:55:07;7.47;;;6.50;;
60030;SDS011;45901;47.600;9.890;2023-09-12T02:57:35;11.33;;;6.57;;
60030;SDS011;45901;47.600;9.890;2023-09-12T03:00:02;9.30;;;6.83;;
60030;SDS011;45901;47.600;9.890;2023-09-12T03:02:34;10.30;;;6.90;;
60030;SDS011;45901;47.600;9.890;2023-09-12T03:05:01;7.57;;;6.70;;
60030;SDS011;45901;47.600;9.890;2023-09-12T03:07:29;9.60;;;6.83;;
60030;SDS011;45901;47.600;9.890;2023-09-12T03:09:56;9.10;;;6.63;;
60030;SDS011;45901;47.600;9.890;2023-09-12T03:12:24;9.33;;;6.60;;
60030;SDS011;45901;47.600;9.890;2023-09-12T03:14:51;7.80;;;6.67;;
60030;SDS011;45901;47.600;9.890;2023-09-12T03:17:18;8.67;;;6.50;;
60030;SDS011;45901;47.600;9.890;2023-09-12T03:19:46;10.27;;;6.13;;
60030;SDS011;45901;47.600;9.890;2023-09-12T03:22:13;9.47;;;6.67;;
60030;SDS011;45901;47.600;9.890;2023-09-12T03:24:40;9.03;;;6.93;;
60030;SDS011;45901;47.600;9.890;2023-09-12T03:27:07;7.83;;;6.47;;
60030;SDS011;45901;47.600;9.890;2023-09-12T03:29:35;8.03;;;6.60;;
60030;SDS011;45901;47.600;9.890;2023-09-12T03:32:02;9.23;;;6.67;;
60030;SDS011;45901;47.600;9.890;2023-09-12T03:34:30;10.03;;;6.93;;
60030;SDS011;45901;47.600;9.890;2023-09-12T03:36:57;9.20;;;6.77;;
60030;SDS011;45901;47.600;9.890;2023-09-12T03:39:24;7.37;;;6.67;;
60030;SDS011;45901;47.600;9.890;2023-09-12T03:41:51;8.03;;;6.80;;
60030;SDS011;45901;47.600;9.890;2023-09-12T03:44:18;10.13;;;6.53;;
60030;SDS011;45901;47.600;9.890;2023-09-12T03:46:46;8.33;;;6.47;;
60030;SDS011;45901;47.600;9.890;2023-09-12T03:49:13;9.27;;;6.50;;
60030;SDS011;45901;47.600;9.890;2023-09-12T03:51:40;8.57;;;6.60;;
60030;SDS011;45901;47.600;9.890;2023-09-12T03:54:07;8.13;;;6.47;;
60030;SDS011;45901;47.600;9.890;2023-09-12T03:56:34;7.93;;;6.63;;
60030;SDS011;45901;47.600;9.890;2023-09-12T03:59:01;10.13;;;6.43;;
60030;SDS011;45901;47.600;9.890;2023-09-12T04:01:28;12.47;;;6.43;;
60030;SDS011;45901;47.600;9.890;2023-09-12T04:03:56;10.67;;;6.67;;
60030;SDS011;45901;47.600;9.890;2023-09-12T04:06:23;6.93;;;5.90;;
60030;SDS011;45901;47.600;9.890;2023-09-12T04:08:50;9.77;;;6.43;;
60030;SDS011;45901;47.600;9.890;2023-09-12T04:11:17;9.30;;;6.63;;
60030;SDS011;45901;47.600;9.890;2023-09-12T04:13:44;12.03;;;7.07;;
60030;SDS011;45901;47.600;9.890;2023-09-12T04:16:11;8.73;;;6.50;;
60030;SDS011;45901;47.600;9.890;2023-09-12T04:18:38;6.90;;;6.13;;
60030;SDS011;45901;47.600;9.890;2023-09-12T04:21:06;12.67;;;6.57;;
60030;SDS011;45901;47.600;9.890;2023-09-12T04:23:33;8.90;;;6.10;;
60030;SDS011;45901;47.600;9.890;2023-09-12T04:26:00;9.43;;;6.47;;
60030;SDS011;45901;47.600;9.890;2023-09-12T04:28:28;8.43;;;6.00;;
60030;SDS011;45901;47.600;9.890;2023-09-12T04:31:00;7.17;;;5.97;;
60030;SDS011;45901;47.600;9.890;2023-09-12T04:33:28;10.10;;;6.23;;
60030;SDS011;45901;47.600;9.890;2023-09-12T04:35:57;8.80;;;6.50;;
60030;SDS011;45901;47.600;9.890;2023-09-12T04:38:29;8.97;;;6.50;;
60030;SDS011;45901;47.600;9.890;2023-09-12T04:40:59;9.33;;;7.30;;
60030;SDS011;45901;47.600;9.890;2023-09-12T04:43:45;7.83;;;6.67;;
60030;SDS011;45901;47.600;9.890;2023-09-12T04:46:15;7.63;;;6.60;;
60030;SDS011;45901;47.600;9.890;2023-09-12T04:48:42;8.30;;;6.13;;
60030;SDS011;45901;47.600;9.890;2023-09-12T04:51:09;7.60;;;6.37;;
60030;SDS011;45901;47.600;9.890;2023-09-12T04:53:38;6.97;;;6.10;;
60030;SDS011;45901;47.600;9.890;2023-09-12T04:56:05;7.53;;;5.87;;
60030;SDS011;45901;47.600;9.890;2023-09-12T04:58:35;7.67;;;6.43;;
60030;SDS011;45901;47.600;9.890;2023-09-12T05:01:02;10.43;;;6.37;;
60030;SDS011;45901;47.600;9.890;2023-09-12T05:03:29;8.47;;;7.10;;
60030;SDS011;45901;47.600;9.890;2023-09-12T05:06:00;9.57;;;6.27;;
60030;SDS011;45901;47.600;9.890;2023-09-12T05:08:28;8.27;;;6.77;;
60030;SDS011;45901;47.600;9.890;2023-09-12T05:10:56;10.27;;;6.07;;
60030;SDS011;45901;47.600;9.890;2023-09-12T05:13:24;11.40;;;6.73;;
60030;SDS011;45901;47.600;9.890;2023-09-12T05:15:56;11.50;;;6.40;;
60030;SDS011;45901;47.600;9.890;2023-09-12T05:18:25;8.40;;;6.50;;
60030;SDS011;45901;47.600;9.890;2023-09-12T05:20:53;11.00;;;6.80;;
60030;SDS011;45901;47.600;9.890;2023-09-12T05:23:20;12.13;;;6.97;;
60030;SDS011;45901;47.600;9.890;2023-09-12T05:25:47;11.47;;;7.10;;
60030;SDS011;45901;47.600;9.890;2023-09-12T05:28:16;9.83;;;6.27;;
60030;SDS011;45901;47.600;9.890;2023-09-12T05:30:49;11.77;;;7.07;;
60030;SDS011;45901;47.600;9.890;2023-09-12T05:33:17;10.17;;;6.60;;
60030;SDS011;45901;47.600;9.890;2023-09-12T05:36:05;10.27;;;6.53;;
60030;SDS011;45901;47.600;9.890;2023-09-12T05:38:32;9.93;;;7.40;;
60030;SDS011;45901;47.600;9.890;2023-09-12T05:41:00;10.43;;;6.37;;
60030;SDS011;45901;47.600;9.890;2023-09-12T05:43:44;10.20;;;7.03;;
60030;SDS011;45901;47.600;9.890;2023-09-12T05:46:11;11.57;;;7.13;;
60030;SDS011;45901;47.600;9.890;2023-09-12T05:48:39;12.87;;;6.43;;
60030;SDS011;45901;47.600;9.890;2023-09-12T05:51:18;9.90;;;6.83;;
60030;SDS011;45901;47.600;9.890;2023-09-12T05:53:54;8.60;;;7.17;;
60030;SDS011;45901;47.600;9.890;2023-09-12T05:56:21;9.20;;;6.57;;
60030;SDS011;45901;47.600;9.890;2023-09-12T05:59:12;7.90;;;6.07;;
60030;SDS011;45901;47.600;9.890;2023-09-12T06:01:39;8.80;;;6.27;;
60030;SDS011;45901;47.600;9.890;2023-09-12T06:04:12;10.97;;;7.23;;
60030;SDS011;45901;47.600;9.890;2023-09-12T06:06:39;12.27;;;6.73;;
60030;SDS011;45901;47.600;9.890;2023-09-12T06:09:15;8.13;;;6.30;;
60030;SDS011;45901;47.600;9.890;2023-09-12T06:12:04;10.00;;;6.83;;
60030;SDS011;45901;47.600;9.890;2023-09-12T06:14:38;10.13;;;6.10;;
60030;SDS011;45901;47.600;9.890;2023-09-12T06:17:05;8.07;;;6.63;;
60030;SDS011;45901;47.600;9.890;2023-09-12T06:19:32;10.03;;;6.77;;
60030;SDS011;45901;47.600;9.890;2023-09-12T06:21:59;8.73;;;6.40;;
60030;SDS011;45901;47.600;9.890;2023-09-12T06:24:31;7.17;;;6.27;;
60030;SDS011;45901;47.600;9.890;2023-09-12T06:26:58;10.37;;;6.73;;
60030;SDS011;45901;47.600;9.890;2023-09-12T06:29:25;7.53;;;6.20;;
60030;SDS011;45901;47.600;9.890;2023-09-12T06:31:58;9.07;;;5.90;;
60030;SDS011;45901;47.600;9.890;2023-09-12T06:34:28;11.00;;;6.43;;
60030;SDS011;45901;47.600;9.890;2023-09-12T06:36:58;8.27;;;6.33;;
60030;SDS011;45901;47.600;9.890;2023-09-12T06:39:29;8.83;;;6.53;;
60030;SDS011;45901;47.600;9.890;2023-09-12T06:41:56;7.63;;;6.57;;
60030;SDS011;45901;47.600;9.890;2023-09-12T06:44:23;11.47;;;6.87;;
60030;SDS011;45901;47.600;9.890;2023-09-12T06:46:50;8.13;;;6.80;;
60030;SDS011;45901;47.600;9.890;2023-09-12T06:49:19;11.10;;;6.27;;
60030;SDS011;45901;47.600;9.890;2023-09-12T06:51:57;8.23;;;6.40;;
60030;SDS011;45901;47.600;9.890;2023-09-12T06:54:32;8.00;;;5.97;;
60030;SDS011;45901;47.600;9.890;2023-09-12T06:57:00;7.63;;;6.00;;
60030;SDS011;45901;47.600;9.890;2023-09-12T06:59:40;8.13;;;6.10;;
60030;SDS011;45901;47.600;9.890;2023-09-12T07:02:09;8.80;;;6.23;;
60030;SDS011;45901;47.600;9.890;2023-09-12T07:04:44;9.37;;;7.03;;
60030;SDS011;45901;47.600;9.890;2023-09-12T07:07:33;10.50;;;7.33;;
60030;SDS011;45901;47.600;9.890;2023-09-12T07:10:05;7.00;;;5.97;;
60030;SDS011;45901;47.600;9.890;2023-09-12T07:12:33;9.97;;;6.60;;
60030;SDS011;45901;47.600;9.890;2023-09-12T07:15:07;9.60;;;5.90;;
60030;SDS011;45901;47.600;9.890;2023-09-12T07:17:34;8.17;;;6.33;;
60030;SDS011;45901;47.600;9.890;2023-09-12T07:20:04;10.70;;;6.67;;
60030;SDS011;45901;47.600;9.890;2023-09-12T07:22:44;8.27;;;6.50;;
60030;SDS011;45901;47.600;9.890;2023-09-12T07:25:18;9.97;;;6.33;;
60030;SDS011;45901;47.600;9.890;2023-09-12T07:27:52;9.30;;;6.70;;
60030;SDS011;45901;47.600;9.890;2023-09-12T07:30:33;8.20;;;6.47;;
60030;SDS011;45901;47.600;9.890;2023-09-12T07:33:00;10.53;;;6.53;;
60030;SDS011;45901;47.600;9.890;2023-09-12T07:35:29;8.03;;;6.37;;
60030;SDS011;45901;47.600;9.890;2023-09-12T07:37:56;9.17;;;6.50;;
60030;SDS011;45901;47.600;9.890;2023-09-12T07:40:23;9.23;;;6.60;;
60030;SDS011;45901;47.600;9.890;2023-09-12T07:42:50;8.70;;;6.40;;
60030;SDS011;45901;47.600;9.890;2023-09-12T07:45:17;7.40;;;6.27;;
60030;SDS011;45901;47.600;9.890;2023-09-12T07:47:45;9.13;;;6.97;;
60030;SDS011;45901;47.600;9.890;2023-09-12T07:50:13;9.67;;;6.53;;
60030;SDS011;45901;47.600;9.890;2023-09-12T07:52:42;9.73;;;7.30;;
60030;SDS011;45901;47.600;9.890;2023-09-12T07:55:09;12.07;;;7.03;;
60030;SDS011;45901;47.600;9.890;2023-09-12T07:57:36;7.20;;;6.30;;
60030;SDS011;45901;47.600;9.890;2023-09-12T08:00:04;10.70;;;6.93;;
60030;SDS011;45901;47.600;9.890;2023-09-12T08:02:35;9.00;;;7.80;;
60030;SDS011;45901;47.600;9.890;2023-09-12T08:05:03;8.63;;;6.73;;
60030;SDS011;45901;47.600;9.890;2023-09-12T08:07:33;12.60;;;6.50;;
60030;SDS011;45901;47.600;9.890;2023-09-12T08:10:02;7.90;;;7.10;;
60030;SDS011;45901;47.600;9.890;2023-09-12T08:12:30;7.87;;;6.47;;
60030;SDS011;45901;47.600;9.890;2023-09-12T08:15:00;8.27;;;7.40;;
60030;SDS011;45901;47.600;9.890;2023-09-12T08:17:27;11.20;;;7.23;;
60030;SDS011;45901;47.600;9.890;2023-09-12T08:19:54;7.20;;;6.30;;
60030;SDS011;45901;47.600;9.890;2023-09-12T08:22:21;8.90;;;6.93;;
60030;SDS011;45901;47.600;9.890;2023-09-12T08:24:48;9.00;;;6.57;;
60030;SDS011;45901;47.600;9.890;2023-09-12T08:27:18;7.97;;;5.97;;
60030;SDS011;45901;47.600;9.890;2023-09-12T08:29:51;8.70;;;6.80;;
60030;SDS011;45901;47.600;9.890;2023-09-12T08:32:21;15.00;;;10.47;;
60030;SDS011;45901;47.600;9.890;2023-09-12T08:34:49;13.33;;;9.43;;
60030;SDS011;45901;47.600;9.890;2023-09-12T08:37:16;15.30;;;9.17;;
60030;SDS011;45901;47.600;9.890;2023-09-12T08:39:43;9.43;;;7.17;;
60030;SDS011;45901;47.600;9.890;2023-09-12T08:42:12;8.03;;;7.13;;
60030;SDS011;45901;47.600;9.890;2023-09-12T08:44:43;9.70;;;6.70;;
60030;SDS011;45901;47.600;9.890;2023-09-12T08:47:11;12.73;;;6.97;;
60030;SDS011;45901;47.600;9.890;2023-09-12T08:49:40;11.03;;;8.33;;
60030;SDS011;45901;47.600;9.890;2023-09-12T08:52:07;9.70;;;6.57;;
60030;SDS011;45901;47.600;9.890;2023-09-12T08:54:34;11.57;;;7.17;;
60030;SDS011;45901;47.600;9.890;2023-09-12T08:57:02;10.07;;;6.83;;
60030;SDS011;45901;47.600;9.890;2023-09-12T08:59:31;7.47;;;6.40;;
60030;SDS011;45901;47.600;9.890;2023-09-12T09:02:01;9.80;;;7.20;;
60030;SDS011;45901;47.600;9.890;2023-09-12T09:04:32;10.70;;;7.20;;
60030;SDS011;45901;47.600;9.890;2023-09-12T09:07:00;7.67;;;6.23;;
60030;SDS011;45901;47.600;9.890;2023-09-12T09:09:29;11.53;;;7.70;;
60030;SDS011;45901;47.600;9.890;2023-09-12T09:11:57;10.10;;;6.50;;
60030;SDS011;45901;47.600;9.890;2023-09-12T09:14:24;9.83;;;6.97;;
60030;SDS011;45901;47.600;9.890;2023-09-12T09:16:51;8.50;;;7.47;;
60030;SDS011;45901;47.600;9.890;2023-09-12T09:19:20;7.93;;;6.87;;
60030;SDS011;45901;47.600;9.890;2023-09-12T09:21:47;11.57;;;6.60;;
60030;SDS011;45901;47.600;9.890;2023-09-12T09:24:14;9.93;;;7.13;;
60030;SDS011;45901;47.600;9.890;2023-09-12T09:26:43;12.17;;;7.33;;
60030;SDS011;45901;47.600;9.890;2023-09-12T09:29:13;12.80;;;6.50;;
60030;SDS011;45901;47.600;9.890;2023-09-12T09:31:42;10.27;;;6.50;;
60030;SDS011;45901;47.600;9.890;2023-09-12T09:34:10;10.10;;;6.30;;
60030;SDS011;45901;47.600;9.890;2023-09-12T09:36:43;6.67;;;5.60;;
60030;SDS011;45901;47.600;9.890;2023-09-12T09:39:14;7.53;;;6.23;;
60030;SDS011;45901;47.600;9.890;2023-09-12T09:41:45;9.98;;;5.70;;
60030;SDS011;45901;47.600;9.890;2023-09-12T09:44:13;8.00;;;5.18;;
60030;SDS011;45901;47.600;9.890;2023-09-12T09:46:42;8.45;;;5.78;;
60030;SDS011;45901;47.600;9.890;2023-09-12T09:49:10;6.25;;;5.25;;
60030;SDS011;45901;47.600;9.890;2023-09-12T09:51:40;8.48;;;5.75;;
60030;SDS011;45901;47.600;9.890;2023-09-12T09:54:09;7.53;;;5.03;;
60030;SDS011;45901;47.600;9.890;2023-09-12T09:56:44;10.10;;;5.55;;
60030;SDS011;45901;47.600;9.890;2023-09-12T09:59:13;8.30;;;5.55;;
60030;SDS011;45901;47.600;9.890;2023-09-12T10:01:41;9.57;;;5.28;;
60030;SDS011;45901;47.600;9.890;2023-09-12T10:04:11;14.00;;;5.30;;
60030;SDS011;45901;47.600;9.890;2023-09-12T10:06:38;7.50;;;5.25;;
60030;SDS011;45901;47.600;9.890;2023-09-12T10:09:10;7.55;;;5.80;;
60030;SDS011;45901;47.600;9.890;2023-09-12T10:11:39;6.63;;;5.10;;
60030;SDS011;45901;47.600;9.890;2023-09-12T10:14:08;10.07;;;5.45;;
60030;SDS011;45901;47.600;9.890;2023-09-12T10:16:36;8.93;;;5.50;;
60030;SDS011;45901;47.600;9.890;2023-09-12T10:19:13;9.18;;;5.68;;
60030;SDS011;45901;47.600;9.890;2023-09-12T10:21:45;8.90;;;5.72;;
60030;SDS011;45901;47.600;9.890;2023-09-12T10:24:17;9.02;;;5.57;;
60030;SDS011;45901;47.600;9.890;2023-09-12T10:26:46;9.63;;;5.20;;
60030;SDS011;45901;47.600;9.890;2023-09-12T10:29:15;8.23;;;5.68;;
60030;SDS011;45901;47.600;9.890;2023-09-12T10:31:43;9.50;;;5.40;;
60030;SDS011;45901;47.600;9.890;2023-09-12T10:34:10;8.45;;;5.20;;
60030;SDS011;45901;47.600;9.890;2023-09-12T10:36:40;7.35;;;5.97;;
60030;SDS011;45901;47.600;9.890;2023-09-12T10:39:09;7.78;;;5.47;;
60030;SDS011;45901;47.600;9.890;2023-09-12T10:41:40;6.93;;;5.53;;
60030;SDS011;45901;47.600;9.890;2023-09-12T10:44:09;8.73;;;5.50;;
60030;SDS011;45901;47.600;9.890;2023-09-12T10:46:38;8.52;;;5.63;;
60030;SDS011;45901;47.600;9.890;2023-09-12T10:49:07;11.18;;;5.72;;
60030;SDS011;45901;47.600;9.890;2023-09-12T10:51:37;7.72;;;5.05;;
60030;SDS011;45901;47.600;9.890;2023-09-12T10:54:06;7.03;;;4.93;;
60030;SDS011;45901;47.600;9.890;2023-09-12T10:56:34;7.22;;;5.10;;
60030;SDS011;45901;47.600;9.890;2023-09-12T10:59:12;6.38;;;5.63;;
60030;SDS011;45901;47.600;9.890;2023-09-12T11:01:41;9.75;;;5.75;;
60030;SDS011;45901;47.600;9.890;2023-09-12T11:07:00;9.40;;;5.90;;
60030;SDS011;45901;47.600;9.890;2023-09-12T11:09:48;7.40;;;5.53;;
60030;SDS011;45901;47.600;9.890;2023-09-12T11:12:46;10.02;;;6.15;;
60030;SDS011;45901;47.600;9.890;2023-09-12T11:15:16;10.05;;;5.65;;
60030;SDS011;45901;47.600;9.890;2023-09-12T11:17:45;11.73;;;5.55;;
60030;SDS011;45901;47.600;9.890;2023-09-12T11:20:14;6.50;;;5.60;;
60030;SDS011;45901;47.600;9.890;2023-09-12T11:22:42;9.18;;;5.93;;
60030;SDS011;45901;47.600;9.890;2023-09-12T11:25:17;11.88;;;6.53;;
60030;SDS011;45901;47.600;9.890;2023-09-12T11:28:01;8.48;;;6.05;;
60030;SDS011;45901;47.600;9.890;2023-09-12T11:30:31;12.10;;;6.03;;
60030;SDS011;45901;47.600;9.890;2023-09-12T11:33:01;8.95;;;6.00;;
60030;SDS011;45901;47.600;9.890;2023-09-12T11:35:35;9.65;;;5.95;;
60030;SDS011;45901;47.600;9.890;2023-09-12T11:38:09;8.13;;;6.03;;
60030;SDS011;45901;47.600;9.890;2023-09-12T11:40:43;10.80;;;5.88;;
60030;SDS011;45901;47.600;9.890;2023-09-12T11:43:19;11.18;;;6.20;;
60030;SDS011;45901;47.600;9.890;2023-09-12T11:45:50;13.02;;;6.30;;
60030;SDS011;45901;47.600;9.890;2023-09-12T11:48:18;7.70;;;5.95;;
60030;SDS011;45901;47.600;9.890;2023-09-12T11:51:00;9.57;;;6.35;;
60030;SDS011;45901;47.600;9.890;2023-09-12T11:53:33;6.85;;;5.97;;
60030;SDS011;45901;47.600;9.890;2023-09-12T11:56:00;6.72;;;5.45;;
60030;SDS011;45901;47.600;9.890;2023-09-12T11:58:28;10.82;;;5.90;;
60030;SDS011;45901;47.600;9.890;2023-09-12T12:00:56;9.98;;;5.82;;
60030;SDS011;45901;47.600;9.890;2023-09-12T12:03:25;10.13;;;6.00;;
60030;SDS011;45901;47.600;9.890;2023-09-12T12:05:54;7.25;;;5.82;;
60030;SDS011;45901;47.600;9.890;2023-09-12T12:08:22;6.63;;;5.47;;
60030;SDS011;45901;47.600;9.890;2023-09-12T12:10:49;7.95;;;5.35;;
60030;SDS011;45901;47.600;9.890;2023-09-12T12:13:16;7.82;;;5.72;;
60030;SDS011;45901;47.600;9.890;2023-09-12T12:15:44;12.20;;;6.60;;
60030;SDS011;45901;47.600;9.890;2023-09-12T12:18:13;7.60;;;5.53;;
60030;SDS011;45901;47.600;9.890;2023-09-12T12:20:40;10.15;;;6.22;;
60030;SDS011;45901;47.600;9.890;2023-09-12T12:23:08;16.17;;;6.30;;
60030;SDS011;45901;47.600;9.890;2023-09-12T12:25:35;8.38;;;5.65;;
60030;SDS011;45901;47.600;9.890;2023-09-12T12:28:03;11.32;;;6.38;;
60030;SDS011;45901;47.600;9.890;2023-09-12T12:30:30;8.02;;;6.15;;
60030;SDS011;45901;47.600;9.890;2023-09-12T12:33:00;9.48;;;5.72;;
60030;SDS011;45901;47.600;9.890;2023-09-12T12:35:33;8.30;;;5.60;;
60030;SDS011;45901;47.600;9.890;2023-09-12T12:38:02;6.57;;;5.22;;
60030;SDS011;45901;47.600;9.890;2023-09-12T12:40:38;10.85;;;6.10;;
60030;SDS011;45901;47.600;9.890;2023-09-12T12:43:05;9.45;;;6.18;;
60030;SDS011;45901;47.600;9.890;2023-09-12T12:45:51;9.35;;;6.38;;
60030;SDS011;45901;47.600;9.890;2023-09-12T12:48:28;16.52;;;6.28;;
60030;SDS011;45901;47.600;9.890;2023-09-12T12:50:57;8.70;;;5.10;;
60030;SDS011;45901;47.600;9.890;2023-09-12T12:53:38;7.97;;;5.38;;
60030;SDS011;45901;47.600;9.890;2023-09-12T12:56:05;6.03;;;5.43;;
60030;SDS011;45901;47.600;9.890;2023-09-12T12:58:33;7.40;;;5.82;;
60030;SDS011;45901;47.600;9.890;2023-09-12T13:01:01;7.38;;;5.38;;
60030;SDS011;45901;47.600;9.890;2023-09-12T13:03:28;7.60;;;5.93;;
60030;SDS011;45901;47.600;9.890;2023-09-12T13:05:57;6.70;;;5.28;;
60030;SDS011;45901;47.600;9.890;2023-09-12T13:08:24;7.22;;;5.55;;
60030;SDS011;45901;47.600;9.890;2023-09-12T13:10:51;6.93;;;5.22;;
60030;SDS011;45901;47.600;9.890;2023-09-12T13:13:18;5.93;;;5.32;;
60030;SDS011;45901;47.600;9.890;2023-09-12T13:15:46;7.10;;;5.10;;
60030;SDS011;45901;47.600;9.890;2023-09-12T13:18:13;10.27;;;5.85;;
60030;SDS011;45901;47.600;9.890;2023-09-12T13:20:40;10.10;;;6.32;;
60030;SDS011;45901;47.600;9.890;2023-09-12T13:23:08;7.57;;;5.38;;
60030;SDS011;45901;47.600;9.890;2023-09-12T13:25:35;7.68;;;6.07;;
60030;SDS011;45901;47.600;9.890;2023-09-12T13:28:02;7.40;;;5.50;;
60030;SDS011;45901;47.600;9.890;2023-09-12T13:30:30;8.40;;;5.40;;
60030;SDS011;45901;47.600;9.890;2023-09-12T13:32:57;6.68;;;5.30;;
60030;SDS011;45901;47.600;9.890;2023-09-12T13:35:24;10.38;;;6.18;;
60030;SDS011;45901;47.600;9.890;2023-09-12T13:37:51;13.05;;;5.97;;
60030;SDS011;45901;47.600;9.890;2023-09-12T13:40:19;8.13;;;5.65;;
60030;SDS011;45901;47.600;9.890;2023-09-12T13:42:46;7.55;;;5.95;;
60030;SDS011;45901;47.600;9.890;2023-09-12T13:45:13;8.05;;;6.15;;
60030;SDS011;45901;47.600;9.890;2023-09-12T13:47:40;5.93;;;5.18;;
60030;SDS011;45901;47.600;9.890;2023-09-12T13:50:10;8.75;;;5.22;;
60030;SDS011;45901;47.600;9.890;2023-09-12T13:52:38;6.88;;;5.47;;
60030;SDS011;45901;47.600;9.890;2023-09-12T13:55:10;11.20;;;6.07;;
60030;SDS011;45901;47.600;9.890;2023-09-12T13:57:40;7.88;;;5.82;;
60030;SDS011;45901;47.600;9.890;2023-09-12T14:00:08;7.15;;;5.18;;
60030;SDS011;45901;47.600;9.890;2023-09-12T14:02:36;12.57;;;6.10;;
60030;SDS011;45901;47.600;9.890;2023-09-12T14:05:03;8.23;;;5.65;;
60030;SDS011;45901;47.600;9.890;2023-09-12T14:07:31;9.25;;;5.65;;
60030;SDS011;45901;47.600;9.890;2023-09-12T14:09:58;8.48;;;6.00;;
60030;SDS011;45901;47.600;9.890;2023-09-12T14:12:28;8.95;;;5.85;;
60030;SDS011;45901;47.600;9.890;2023-09-12T14:14:57;8.30;;;6.03;;
60030;SDS011;45901;47.600;9.890;2023-09-12T14:17:24;8.68;;;5.15;;
60030;SDS011;45901;47.600;9.890;2023-09-12T14:19:57;12.70;;;5.65;;
60030;SDS011;45901;47.600;9.890;2023-09-12T14:22:24;11.68;;;6.35;;
60030;SDS011;45901;47.600;9.890;2023-09-12T14:24:51;8.75;;;6.35;;
60030;SDS011;45901;47.600;9.890;2023-09-12T14:27:18;8.70;;;6.35;;
60030;SDS011;45901;47.600;9.890;2023-09-12T14:29:45;7.95;;;5.50;;
60030;SDS011;45901;47.600;9.890;2023-09-12T14:32:18;11.10;;;5.85;;
60030;SDS011;45901;47.600;9.890;2023-09-12T14:34:45;9.68;;;6.10;;
60030;SDS011;45901;47.600;9.890;2023-09-12T14:37:12;10.18;;;5.95;;
60030;SDS011;45901;47.600;9.890;2023-09-12T14:39:39;8.57;;;5.88;;
60030;SDS011;45901;47.600;9.890;2023-09-12T14:42:06;9.50;;;5.75;;
60030;SDS011;45901;47.600;9.890;2023-09-12T14:44:34;8.70;;;6.10;;
60030;SDS011;45901;47.600;9.890;2023-09-12T14:47:01;7.53;;;5.35;;
60030;SDS011;45901;47.600;9.890;2023-09-12T14:49:30;7.63;;;5.72;;
60030;SDS011;45901;47.600;9.890;2023-09-12T14:51:57;10.43;;;6.18;;
60030;SDS011;45901;47.600;9.890;2023-09-12T14:54:23;10.40;;;6.00;;
60030;SDS011;45901;47.600;9.890;2023-09-12T14:56:52;9.05;;;6.97;;
60030;SDS011;45901;47.600;9.890;2023-09-12T14:59:19;19.40;;;8.68;;
60030;SDS011;45901;47.600;9.890;2023-09-12T15:01:46;13.55;;;8.80;;